createdAt,value
2023-03-14T00:00:00.806Z,32.90
2023-03-14T00:01:10.325Z,32.30
2023-03-14T00:02:12.286Z,33.72
2023-03-14T00:03:14.087Z,31.20
2023-03-14T00:04:15.893Z,35.05
2023-03-14T00:05:17.700Z,33.97
2023-03-14T00:06:19.606Z,29.52
2023-03-14T00:07:21.597Z,29.67
2023-03-14T00:08:23.306Z,30.73
2023-03-14T00:09:25.062Z,30.33
2023-03-14T00:10:26.836Z,35.30
2023-03-14T00:11:28.631Z,33.53
2023-03-14T00:12:30.499Z,41.25
2023-03-14T00:13:32.254Z,36.67
2023-03-14T00:14:34.163Z,31.73
2023-03-14T00:15:36.828Z,33.20
2023-03-14T00:16:38.716Z,38.10
2023-03-14T00:17:40.856Z,29.77
2023-03-14T00:18:42.793Z,30.10
2023-03-14T00:19:44.614Z,33.25
2023-03-14T00:20:46.425Z,33.95
2023-03-14T00:21:48.386Z,28.10
2023-03-14T00:22:50.114Z,30.88
2023-03-14T00:23:52.665Z,32.27
2023-03-14T00:24:54.502Z,30.45
2023-03-14T00:26:04.797Z,27.05
2023-03-14T00:27:06.606Z,37.55
2023-03-14T00:28:08.362Z,33.85
2023-03-14T00:29:10.094Z,66.30
2023-03-14T00:30:12.044Z,81.07
2023-03-14T00:31:16.684Z,65.03
2023-03-14T00:32:18.567Z,33.67
2023-03-14T00:33:21.845Z,25.80
2023-03-14T00:34:23.867Z,31.13
2023-03-14T00:35:25.738Z,26.95
2023-03-14T00:36:27.493Z,33.70
2023-03-14T00:37:29.343Z,28.08
2023-03-14T00:38:32.865Z,31.58
2023-03-14T00:39:34.728Z,27.30
2023-03-14T00:40:40.518Z,29.15
2023-03-14T00:41:42.273Z,29.13
2023-03-14T00:42:44.415Z,27.55
2023-03-14T00:43:46.908Z,27.40
2023-03-14T00:44:48.706Z,28.90
2023-03-14T00:45:54.098Z,28.00
2023-03-14T00:46:55.983Z,34.03
2023-03-14T00:47:57.917Z,44.33
2023-03-14T00:48:59.716Z,32.30
2023-03-14T00:50:01.496Z,29.80
2023-03-14T00:51:05.041Z,28.45
2023-03-14T00:52:06.787Z,30.45
2023-03-14T00:53:08.632Z,116.95
2023-03-14T00:54:10.651Z,237.30
2023-03-14T00:55:12.464Z,302.07
2023-03-14T00:56:14.585Z,167.57
2023-03-14T00:57:16.349Z,140.10
2023-03-14T00:58:19.452Z,58.17
2023-03-14T00:59:21.269Z,42.28
2023-03-14T01:00:23.317Z,35.28
2023-03-14T01:01:25.519Z,30.85
2023-03-14T01:02:27.426Z,31.45
2023-03-14T01:03:29.350Z,28.20
2023-03-14T01:04:31.192Z,28.20
2023-03-14T01:05:33.561Z,30.00
2023-03-14T01:06:35.585Z,30.75
2023-03-14T01:07:38.180Z,30.38
2023-03-14T01:08:40.455Z,27.95
2023-03-14T01:09:42.226Z,33.30
2023-03-14T01:10:44.222Z,29.30
2023-03-14T01:11:46.046Z,30.73
2023-03-14T01:12:48.036Z,27.73
2023-03-14T01:13:50.977Z,29.40
2023-03-14T01:14:52.742Z,30.08
2023-03-14T01:15:54.607Z,28.63
2023-03-14T01:16:56.586Z,26.23
2023-03-14T01:17:58.616Z,31.00
2023-03-14T01:19:00.444Z,39.38
2023-03-14T01:20:02.564Z,30.95
2023-03-14T01:21:10.334Z,34.40
2023-03-14T01:22:12.071Z,33.08
2023-03-14T01:23:13.864Z,29.33
2023-03-14T01:24:15.595Z,26.52
2023-03-14T01:25:18.251Z,29.20
2023-03-14T01:26:23.173Z,37.27
2023-03-14T01:27:24.957Z,30.75
2023-03-14T01:28:27.425Z,33.50
2023-03-14T01:29:29.369Z,33.03
2023-03-14T01:30:31.221Z,30.85
2023-03-14T01:31:33.158Z,30.65
2023-03-14T01:32:35.385Z,26.83
2023-03-14T01:33:37.897Z,32.08
2023-03-14T01:34:39.692Z,31.75
2023-03-14T01:35:41.610Z,35.50
2023-03-14T01:36:43.426Z,31.27
2023-03-14T01:37:45.446Z,33.53
2023-03-14T01:38:47.791Z,35.20
2023-03-14T01:39:49.566Z,39.13
2023-03-14T01:40:51.570Z,33.28
2023-03-14T01:41:53.392Z,27.95
2023-03-14T01:42:56.892Z,33.25
2023-03-14T01:43:59.018Z,33.00
2023-03-14T01:45:02.525Z,31.20
2023-03-14T01:46:07.041Z,31.13
2023-03-14T01:47:08.901Z,35.07
2023-03-14T01:48:10.688Z,35.25
2023-03-14T01:49:16.345Z,34.40
2023-03-14T01:50:18.162Z,31.30
2023-03-14T01:51:43.586Z,31.02
2023-03-14T01:52:51.622Z,28.23
2023-03-14T01:54:03.626Z,32.33
2023-03-14T01:55:10.545Z,30.85
2023-03-14T01:56:15.909Z,34.50
2023-03-14T01:57:24.677Z,38.53
2023-03-14T01:58:30.485Z,34.93
2023-03-14T01:59:33.872Z,35.65
2023-03-14T02:00:35.778Z,31.63
2023-03-14T02:01:40.507Z,34.92
2023-03-14T02:02:56.627Z,28.95
2023-03-14T02:04:02.595Z,29.27
2023-03-14T02:05:05.602Z,28.08
2023-03-14T02:06:09.597Z,31.05
2023-03-14T02:07:18.538Z,34.35
2023-03-14T02:08:22.512Z,26.05
2023-03-14T02:09:24.756Z,45.00
2023-03-14T02:10:33.226Z,88.95
2023-03-14T02:11:35.532Z,48.60
2023-03-14T02:12:37.998Z,53.42
2023-03-14T02:13:40.070Z,52.40
2023-03-14T02:14:42.440Z,40.00
2023-03-14T02:15:44.505Z,31.98
2023-03-14T02:16:46.712Z,31.48
2023-03-14T02:17:49.026Z,26.52
2023-03-14T02:18:51.033Z,30.75
2023-03-14T02:20:01.798Z,34.93
2023-03-14T02:21:21.110Z,27.10
2023-03-14T02:22:23.218Z,31.88
2023-03-14T02:23:46.330Z,31.83
2023-03-14T02:24:58.878Z,28.20
2023-03-14T02:26:36.387Z,28.63
2023-03-14T02:27:39.344Z,25.60
2023-03-14T02:28:41.146Z,26.92
2023-03-14T02:29:54.165Z,33.97
2023-03-14T02:30:55.952Z,25.67
2023-03-14T02:31:57.738Z,21.33
2023-03-14T02:33:07.837Z,31.02
2023-03-14T02:34:09.603Z,20.55
2023-03-14T02:35:15.365Z,32.33
2023-03-14T02:36:20.299Z,23.20
2023-03-14T02:37:26.808Z,23.88
2023-03-14T02:39:00.652Z,27.70
2023-03-14T02:40:18.021Z,20.25
2023-03-14T02:41:19.905Z,23.08
2023-03-14T02:42:22.817Z,22.92
2023-03-14T02:43:24.846Z,23.67
2023-03-14T02:44:26.679Z,25.33
2023-03-14T02:45:44.352Z,25.15
2023-03-14T02:46:46.303Z,24.25
2023-03-14T02:47:55.231Z,26.48
2023-03-14T02:49:03.015Z,23.48
2023-03-14T02:50:11.877Z,26.55
2023-03-14T02:51:15.348Z,24.15
2023-03-14T02:52:17.181Z,17.88
2023-03-14T02:53:24.863Z,23.30
2023-03-14T02:54:26.634Z,20.37
2023-03-14T02:55:28.425Z,22.88
2023-03-14T02:56:30.285Z,28.92
2023-03-14T02:57:32.184Z,23.83
2023-03-14T02:58:33.995Z,25.70
2023-03-14T02:59:35.764Z,22.90
2023-03-14T03:00:37.543Z,24.67
2023-03-14T03:01:39.482Z,23.50
2023-03-14T03:02:41.458Z,26.00
2023-03-14T03:03:43.350Z,22.45
2023-03-14T03:04:45.300Z,23.90
2023-03-14T03:05:55.765Z,23.25
2023-03-14T03:06:57.643Z,25.38
2023-03-14T03:07:59.719Z,25.25
2023-03-14T03:09:01.827Z,25.90
2023-03-14T03:10:04.392Z,25.45
2023-03-14T03:11:06.633Z,24.88
2023-03-14T03:12:08.457Z,20.58
2023-03-14T03:13:10.201Z,20.30
2023-03-14T03:14:12.028Z,25.10
2023-03-14T03:15:13.774Z,21.13
2023-03-14T03:16:15.849Z,24.88
2023-03-14T03:17:18.257Z,23.33
2023-03-14T03:18:20.085Z,24.38
2023-03-14T03:19:21.979Z,26.85
2023-03-14T03:20:23.822Z,24.50
2023-03-14T03:21:25.706Z,23.17
2023-03-14T03:22:27.492Z,28.55
2023-03-14T03:23:30.623Z,24.33
2023-03-14T03:24:32.353Z,23.35
2023-03-14T03:25:34.140Z,20.07
2023-03-14T03:26:37.000Z,23.77
2023-03-14T03:27:39.121Z,30.38
2023-03-14T03:28:40.894Z,29.33
2023-03-14T03:29:42.700Z,25.63
2023-03-14T03:30:45.471Z,27.77
2023-03-14T03:31:47.306Z,24.98
2023-03-14T03:32:49.718Z,19.90
2023-03-14T03:33:51.730Z,22.50
2023-03-14T03:34:53.927Z,24.85
2023-03-14T03:35:55.749Z,26.00
2023-03-14T03:36:58.587Z,20.65
2023-03-14T03:38:00.479Z,21.33
2023-03-14T03:39:02.235Z,23.55
2023-03-14T03:40:04.423Z,21.27
2023-03-14T03:41:08.019Z,24.35
2023-03-14T03:42:09.929Z,27.77
2023-03-14T03:43:11.859Z,19.33
2023-03-14T03:44:13.776Z,22.58
2023-03-14T03:45:15.614Z,21.67
2023-03-14T03:46:17.599Z,27.53
2023-03-14T03:47:19.525Z,22.80
2023-03-14T03:48:21.283Z,25.75
2023-03-14T03:49:23.626Z,147.43
2023-03-14T03:50:25.611Z,156.82
2023-03-14T03:51:28.310Z,35.38
2023-03-14T03:52:30.296Z,42.75
2023-03-14T03:53:33.809Z,39.13
2023-03-14T03:54:36.711Z,33.03
2023-03-14T03:55:38.725Z,28.75
2023-03-14T03:56:40.462Z,24.77
2023-03-14T03:57:42.249Z,26.00
2023-03-14T03:58:44.758Z,26.05
2023-03-14T03:59:46.574Z,23.55
2023-03-14T04:00:48.387Z,24.42
2023-03-14T04:01:50.267Z,26.83
2023-03-14T04:02:52.502Z,29.27
2023-03-14T04:03:54.612Z,22.05
2023-03-14T04:04:56.590Z,28.98
2023-03-14T04:06:08.028Z,30.08
2023-03-14T04:07:09.829Z,21.03
2023-03-14T04:08:11.620Z,24.95
2023-03-14T04:09:13.674Z,28.73
2023-03-14T04:10:16.237Z,25.20
2023-03-14T04:11:18.327Z,21.13
2023-03-14T04:12:20.260Z,24.58
2023-03-14T04:13:22.094Z,26.08
2023-03-14T04:14:24.122Z,22.67
2023-03-14T04:15:25.931Z,23.25
2023-03-14T04:16:27.919Z,27.92
2023-03-14T04:17:29.605Z,209.20
2023-03-14T04:18:31.425Z,319.05
2023-03-14T04:19:33.359Z,260.38
2023-03-14T04:20:36.261Z,296.80
2023-03-14T04:21:38.265Z,179.68
2023-03-14T04:22:40.725Z,111.75
2023-03-14T04:23:43.355Z,133.32
2023-03-14T04:24:45.267Z,66.57
2023-03-14T04:25:47.312Z,43.60
2023-03-14T04:26:49.168Z,35.97
2023-03-14T04:27:53.330Z,28.03
2023-03-14T04:28:55.321Z,23.88
2023-03-14T04:29:57.132Z,25.30
2023-03-14T04:30:59.284Z,24.48
2023-03-14T04:32:01.061Z,20.90
2023-03-14T04:33:03.072Z,34.70
2023-03-14T04:34:04.879Z,33.88
2023-03-14T04:35:07.381Z,36.22
2023-03-14T04:36:10.394Z,34.90
2023-03-14T04:37:12.233Z,24.52
2023-03-14T04:38:14.896Z,25.47
2023-03-14T04:39:16.682Z,22.13
2023-03-14T04:40:19.309Z,27.52
2023-03-14T04:41:21.205Z,23.80
2023-03-14T04:42:23.028Z,20.17
2023-03-14T04:43:24.863Z,21.98
2023-03-14T04:44:26.813Z,26.40
2023-03-14T04:45:28.605Z,19.02
2023-03-14T04:46:30.564Z,27.65
2023-03-14T04:47:32.396Z,22.02
2023-03-14T04:48:34.186Z,21.20
2023-03-14T04:49:35.985Z,24.20
2023-03-14T04:50:37.756Z,30.60
2023-03-14T04:51:39.531Z,20.02
2023-03-14T04:52:41.565Z,26.15
2023-03-14T04:53:43.405Z,20.73
2023-03-14T04:54:45.357Z,26.08
2023-03-14T04:55:52.045Z,21.58
2023-03-14T04:56:53.884Z,24.45
2023-03-14T04:57:55.918Z,18.42
2023-03-14T04:58:57.685Z,19.60
2023-03-14T04:59:59.480Z,21.08
2023-03-14T05:01:05.339Z,21.52
2023-03-14T05:02:07.400Z,22.90
2023-03-14T05:03:09.226Z,22.17
2023-03-14T05:04:11.126Z,44.95
2023-03-14T05:05:13.212Z,35.05
2023-03-14T05:06:15.212Z,32.22
2023-03-14T05:07:17.083Z,28.90
2023-03-14T05:08:18.942Z,25.88
2023-03-14T05:09:20.749Z,36.20
2023-03-14T05:10:22.585Z,21.02
2023-03-14T05:11:24.348Z,30.00
2023-03-14T05:12:26.158Z,44.92
2023-03-14T05:13:27.911Z,57.65
2023-03-14T05:14:29.721Z,52.38
2023-03-14T05:15:31.636Z,50.05
2023-03-14T05:16:33.716Z,47.63
2023-03-14T05:17:36.198Z,36.50
2023-03-14T05:18:38.853Z,40.50
2023-03-14T05:19:41.249Z,27.97
2023-03-14T05:20:43.142Z,32.13
2023-03-14T05:21:44.858Z,25.80
2023-03-14T05:22:46.701Z,29.52
2023-03-14T05:23:48.475Z,35.05
2023-03-14T05:24:50.396Z,38.65
2023-03-14T05:25:52.153Z,29.77
2023-03-14T05:26:54.632Z,27.20
2023-03-14T05:27:56.901Z,27.50
2023-03-14T05:28:58.831Z,32.88
2023-03-14T05:30:00.645Z,34.80
2023-03-14T05:31:02.496Z,26.75
2023-03-14T05:32:04.288Z,26.00
2023-03-14T05:33:06.070Z,32.67
2023-03-14T05:34:07.872Z,37.03
2023-03-14T05:35:10.918Z,28.23
2023-03-14T05:36:13.198Z,28.23
2023-03-14T05:37:15.016Z,27.80
2023-03-14T05:38:16.794Z,22.73
2023-03-14T05:39:18.758Z,21.58
2023-03-14T05:40:20.635Z,21.77
2023-03-14T05:41:22.688Z,25.60
2023-03-14T05:42:24.450Z,24.83
2023-03-14T05:43:26.267Z,27.30
2023-03-14T05:44:28.060Z,23.42
2023-03-14T05:45:29.987Z,31.95
2023-03-14T05:46:31.938Z,29.17
2023-03-14T05:47:33.770Z,26.60
2023-03-14T05:48:35.549Z,25.98
2023-03-14T05:49:37.298Z,30.58
2023-03-14T05:50:39.563Z,28.73
2023-03-14T05:51:41.365Z,28.08
2023-03-14T05:52:43.147Z,23.98
2023-03-14T05:53:44.856Z,28.70
2023-03-14T05:54:46.704Z,30.52
2023-03-14T05:55:48.536Z,23.30
2023-03-14T05:56:50.285Z,24.98
2023-03-14T05:57:52.121Z,27.85
2023-03-14T05:58:53.949Z,25.45
2023-03-14T05:59:55.933Z,27.20
2023-03-14T06:00:57.779Z,27.43
2023-03-14T06:01:59.806Z,22.20
2023-03-14T06:03:01.727Z,26.98
2023-03-14T06:04:03.616Z,30.67
2023-03-14T06:05:06.162Z,24.08
2023-03-14T06:06:08.188Z,21.63
2023-03-14T06:07:10.048Z,21.42
2023-03-14T06:08:11.790Z,23.90
2023-03-14T06:09:13.540Z,21.85
2023-03-14T06:10:15.438Z,23.48
2023-03-14T06:11:17.260Z,24.93
2023-03-14T06:12:19.057Z,24.35
2023-03-14T06:13:20.979Z,21.70
2023-03-14T06:14:22.689Z,27.83
2023-03-14T06:15:24.430Z,22.35
2023-03-14T06:16:26.329Z,22.67
2023-03-14T06:17:28.199Z,21.48
2023-03-14T06:18:29.956Z,25.25
2023-03-14T06:19:31.874Z,21.27
2023-03-14T06:20:33.958Z,20.63
2023-03-14T06:21:35.776Z,23.37
2023-03-14T06:22:37.552Z,18.38
2023-03-14T06:23:39.419Z,21.17
2023-03-14T06:24:41.241Z,21.38
2023-03-14T06:25:42.986Z,20.90
2023-03-14T06:26:44.796Z,21.30
2023-03-14T06:27:46.787Z,17.52
2023-03-14T06:28:48.515Z,20.02
2023-03-14T06:29:50.309Z,15.80
2023-03-14T06:30:52.063Z,16.15
2023-03-14T06:31:53.882Z,14.63
2023-03-14T06:32:56.156Z,15.38
2023-03-14T06:33:58.028Z,15.32
2023-03-14T06:34:59.790Z,15.90
2023-03-14T06:36:01.646Z,15.85
2023-03-14T06:37:03.547Z,13.57
2023-03-14T06:38:05.456Z,16.35
2023-03-14T06:39:07.301Z,16.98
2023-03-14T06:40:11.297Z,14.90
2023-03-14T06:41:13.086Z,13.18
2023-03-14T06:42:14.898Z,13.77
2023-03-14T06:43:16.722Z,16.48
2023-03-14T06:44:18.568Z,12.50
2023-03-14T06:45:20.462Z,14.38
2023-03-14T06:46:22.302Z,13.90
2023-03-14T06:47:24.104Z,12.85
2023-03-14T06:48:25.937Z,14.88
2023-03-14T06:49:27.867Z,16.33
2023-03-14T06:50:29.784Z,20.15
2023-03-14T06:51:31.542Z,21.27
2023-03-14T06:52:33.577Z,19.00
2023-03-14T06:53:35.520Z,14.00
2023-03-14T06:54:37.355Z,14.20
2023-03-14T06:55:39.175Z,16.88
2023-03-14T06:56:40.890Z,16.92
2023-03-14T06:57:42.701Z,15.30
2023-03-14T06:58:44.501Z,16.90
2023-03-14T06:59:46.247Z,18.63
2023-03-14T07:00:48.094Z,17.40
2023-03-14T07:01:49.858Z,17.08
2023-03-14T07:02:51.685Z,18.33
2023-03-14T07:03:53.465Z,17.42
2023-03-14T07:04:55.275Z,20.23
2023-03-14T07:05:57.174Z,19.25
2023-03-14T07:06:59.003Z,20.30
2023-03-14T07:08:00.791Z,15.23
2023-03-14T07:09:03.807Z,12.07
2023-03-14T07:10:06.668Z,12.38
2023-03-14T07:11:08.674Z,11.32
2023-03-14T07:12:10.519Z,11.90
2023-03-14T07:13:12.278Z,14.27
2023-03-14T07:14:14.248Z,13.55
2023-03-14T07:15:19.086Z,15.52
2023-03-14T07:16:21.572Z,12.00
2023-03-14T07:17:23.361Z,13.57
2023-03-14T07:18:25.160Z,16.13
2023-03-14T07:19:26.965Z,14.27
2023-03-14T07:20:28.748Z,12.80
2023-03-14T07:21:30.698Z,15.27
2023-03-14T07:22:32.511Z,12.77
2023-03-14T07:23:35.048Z,14.03
2023-03-14T07:24:37.016Z,12.77
2023-03-14T07:25:38.965Z,12.88
2023-03-14T07:26:40.835Z,13.63
2023-03-14T07:27:45.567Z,14.43
2023-03-14T07:28:47.492Z,11.13
2023-03-14T07:29:49.308Z,15.63
2023-03-14T07:30:51.304Z,11.02
2023-03-14T07:31:53.296Z,14.57
2023-03-14T07:32:55.312Z,15.27
2023-03-14T07:33:57.440Z,15.90
2023-03-14T07:34:59.244Z,18.55
2023-03-14T07:36:01.614Z,14.40
2023-03-14T07:37:03.444Z,13.32
2023-03-14T07:38:05.302Z,21.02
2023-03-14T07:39:07.196Z,22.52
2023-03-14T07:40:09.896Z,24.33
2023-03-14T07:41:11.843Z,14.02
2023-03-14T07:42:13.709Z,11.98
2023-03-14T07:43:15.737Z,16.27
2023-03-14T07:44:17.646Z,13.93
2023-03-14T07:45:19.431Z,15.55
2023-03-14T07:46:21.441Z,15.98
2023-03-14T07:47:23.434Z,12.85
2023-03-14T07:48:25.748Z,11.98
2023-03-14T07:49:27.581Z,18.30
2023-03-14T07:50:29.479Z,15.57
2023-03-14T07:51:31.226Z,16.55
2023-03-14T07:52:33.206Z,14.20
2023-03-14T07:53:35.097Z,11.65
2023-03-14T07:54:36.943Z,13.87
2023-03-14T07:55:40.630Z,12.93
2023-03-14T07:56:42.383Z,14.80
2023-03-14T07:57:44.405Z,12.07
2023-03-14T07:58:46.433Z,12.85
2023-03-14T07:59:48.437Z,14.73
2023-03-14T08:00:51.291Z,13.82
2023-03-14T08:01:53.082Z,12.65
2023-03-14T08:02:54.871Z,13.85
2023-03-14T08:03:56.735Z,14.25
2023-03-14T08:04:58.782Z,13.07
2023-03-14T08:06:00.626Z,15.80
2023-03-14T08:07:02.564Z,16.38
2023-03-14T08:08:06.087Z,13.00
2023-03-14T08:09:07.993Z,12.02
2023-03-14T08:10:10.767Z,12.93
2023-03-14T08:11:12.563Z,12.27
2023-03-14T08:12:14.319Z,14.10
2023-03-14T08:13:16.388Z,14.73
2023-03-14T08:14:18.439Z,18.25
2023-03-14T08:15:20.480Z,17.27
2023-03-14T08:16:23.368Z,17.40
2023-03-14T08:18:02.330Z,12.23
2023-03-14T08:19:04.558Z,12.20
2023-03-14T08:20:07.352Z,13.20
2023-03-14T08:21:09.440Z,12.55
2023-03-14T08:22:11.362Z,13.90
2023-03-14T08:23:13.528Z,11.68
2023-03-14T08:24:15.583Z,13.68
2023-03-14T08:25:17.955Z,14.95
2023-03-14T08:26:19.764Z,11.60
2023-03-14T08:27:21.685Z,10.07
2023-03-14T08:28:23.597Z,14.02
2023-03-14T08:29:25.753Z,13.25
2023-03-14T08:30:27.600Z,12.77
2023-03-14T08:31:29.431Z,11.85
2023-03-14T08:32:31.451Z,12.80
2023-03-14T08:33:33.403Z,11.68
2023-03-14T08:34:35.484Z,11.70
2023-03-14T08:35:39.678Z,12.63
2023-03-14T08:36:42.001Z,14.53
2023-03-14T08:37:44.346Z,16.88
2023-03-14T08:38:46.398Z,12.95
2023-03-14T08:39:48.528Z,11.60
2023-03-14T08:40:50.474Z,11.18
2023-03-14T08:41:52.520Z,12.82
2023-03-14T08:42:54.683Z,13.60
2023-03-14T08:43:56.796Z,11.60
2023-03-14T08:44:58.772Z,13.07
2023-03-14T08:46:01.980Z,11.73
2023-03-14T08:47:03.989Z,11.30
2023-03-14T08:48:06.628Z,10.98
2023-03-14T08:49:08.435Z,13.73
2023-03-14T08:50:14.655Z,18.05
2023-03-14T08:51:17.830Z,14.73
2023-03-14T08:52:19.688Z,14.70
2023-03-14T08:53:21.553Z,11.85
2023-03-14T08:54:23.476Z,14.85
2023-03-14T08:55:25.313Z,15.63
2023-03-14T08:56:27.073Z,12.40
2023-03-14T08:57:28.870Z,23.67
2023-03-14T08:58:30.689Z,14.68
2023-03-14T08:59:32.450Z,9.40
2023-03-14T09:00:34.268Z,11.18
2023-03-14T09:01:36.119Z,9.23
2023-03-14T09:02:38.150Z,14.15
2023-03-14T09:03:40.264Z,14.32
2023-03-14T09:04:42.087Z,10.32
2023-03-14T09:05:43.861Z,8.73
2023-03-14T09:06:45.614Z,7.72
2023-03-14T09:07:47.452Z,9.37
2023-03-14T09:08:49.335Z,14.10
2023-03-14T09:09:51.145Z,10.70
2023-03-14T09:10:52.977Z,9.13
2023-03-14T09:11:54.792Z,10.48
2023-03-14T09:12:56.594Z,11.90
2023-03-14T09:13:58.555Z,9.35
2023-03-14T09:15:00.562Z,8.77
2023-03-14T09:16:02.321Z,9.48
2023-03-14T09:17:04.625Z,11.73
2023-03-14T09:18:06.387Z,7.10
2023-03-14T09:19:08.252Z,8.93
2023-03-14T09:20:12.754Z,8.88
2023-03-14T09:21:14.575Z,8.43
2023-03-14T09:22:16.424Z,7.35
2023-03-14T09:23:18.371Z,7.07
2023-03-14T09:24:20.158Z,7.25
2023-03-14T09:25:22.159Z,6.65
2023-03-14T09:26:23.884Z,6.55
2023-03-14T09:27:25.607Z,8.45
2023-03-14T09:28:27.993Z,10.43
2023-03-14T09:29:30.082Z,7.60
2023-03-14T09:30:31.858Z,7.40
2023-03-14T09:31:33.697Z,6.82
2023-03-14T09:32:35.625Z,9.38
2023-03-14T09:33:38.575Z,7.43
2023-03-14T09:34:40.340Z,6.93
2023-03-14T09:35:42.175Z,6.68
2023-03-14T09:36:44.123Z,6.75
2023-03-14T09:37:45.975Z,9.27
2023-03-14T09:38:48.044Z,6.77
2023-03-14T09:39:49.882Z,7.32
2023-03-14T09:40:51.946Z,12.52
2023-03-14T09:41:56.521Z,7.10
2023-03-14T09:42:58.509Z,6.20
2023-03-14T09:44:09.747Z,7.85
2023-03-14T09:45:24.515Z,6.53
2023-03-14T09:46:26.330Z,6.70
2023-03-14T09:47:28.958Z,6.80
2023-03-14T09:48:33.831Z,8.65
2023-03-14T09:49:40.314Z,8.63
2023-03-14T09:50:46.022Z,6.88
2023-03-14T09:51:50.906Z,7.20
2023-03-14T09:53:00.498Z,6.85
2023-03-14T09:54:02.796Z,6.90
2023-03-14T09:55:07.845Z,12.15
2023-03-14T09:56:34.863Z,31.10
2023-03-14T09:57:37.484Z,13.48
2023-03-14T09:58:43.558Z,7.43
2023-03-14T09:59:50.090Z,7.40
2023-03-14T10:00:56.475Z,6.57
2023-03-14T10:02:21.170Z,6.38
2023-03-14T10:03:36.078Z,6.05
2023-03-14T10:04:39.649Z,8.80
2023-03-14T10:05:42.905Z,8.70
2023-03-14T10:06:44.673Z,5.68
2023-03-14T10:07:46.540Z,7.57
2023-03-14T10:08:48.344Z,6.95
2023-03-14T10:09:52.501Z,7.47
2023-03-14T10:10:55.898Z,7.15
2023-03-14T10:12:01.865Z,6.50
2023-03-14T10:13:15.304Z,7.00
2023-03-14T10:14:45.254Z,6.38
2023-03-14T10:16:00.258Z,7.40
2023-03-14T10:17:10.520Z,7.38
2023-03-14T10:18:13.881Z,6.38
2023-03-14T10:19:17.722Z,9.70
2023-03-14T10:20:38.240Z,6.68
2023-03-14T10:21:42.498Z,7.90
2023-03-14T10:22:44.559Z,7.63
2023-03-14T10:23:48.512Z,12.27
2023-03-14T10:24:55.860Z,11.60
2023-03-14T10:26:14.770Z,11.05
2023-03-14T10:27:23.017Z,10.38
2023-03-14T10:28:30.447Z,11.18
2023-03-14T10:29:34.197Z,7.03
2023-03-14T10:30:46.748Z,8.57
2023-03-14T10:31:55.970Z,6.70
2023-03-14T10:32:58.039Z,7.53
2023-03-14T10:34:05.988Z,9.23
2023-03-14T10:35:16.785Z,7.17
2023-03-14T10:36:28.428Z,5.93
2023-03-14T10:37:30.372Z,6.35
2023-03-14T10:38:37.792Z,7.97
2023-03-14T10:39:50.196Z,6.78
2023-03-14T10:40:54.544Z,7.80
2023-03-14T10:42:04.750Z,6.60
2023-03-14T10:43:14.208Z,8.95
2023-03-14T10:44:20.953Z,7.53
2023-03-14T10:45:32.150Z,7.43
2023-03-14T10:46:34.046Z,8.50
2023-03-14T10:47:35.952Z,7.05
2023-03-14T10:48:39.667Z,6.25
2023-03-14T10:49:41.413Z,7.35
2023-03-14T10:50:50.628Z,6.93
2023-03-14T10:51:52.441Z,8.20
2023-03-14T10:53:03.637Z,8.93
2023-03-14T10:54:20.915Z,5.90
2023-03-14T10:55:25.588Z,10.75
2023-03-14T10:56:34.233Z,10.27
2023-03-14T10:57:43.136Z,15.33
2023-03-14T10:58:47.855Z,12.05
2023-03-14T10:59:49.714Z,11.68
2023-03-14T11:01:30.102Z,14.48
2023-03-14T11:02:59.582Z,11.73
2023-03-14T11:04:20.299Z,9.43
2023-03-14T11:05:36.976Z,9.40
2023-03-14T11:06:56.920Z,11.57
2023-03-14T11:08:10.606Z,9.32
2023-03-14T11:09:20.017Z,8.98
2023-03-14T11:10:35.092Z,10.37
2023-03-14T11:11:38.293Z,7.40
2023-03-14T11:12:48.298Z,12.55
2023-03-14T11:14:08.338Z,10.82
2023-03-14T11:15:46.890Z,9.43
2023-03-14T11:17:11.263Z,9.50
2023-03-14T11:18:50.736Z,7.25
2023-03-14T11:20:01.633Z,8.85
2023-03-14T11:21:33.524Z,8.98
2023-03-14T11:22:47.742Z,10.13
2023-03-14T11:23:58.705Z,10.23
2023-03-14T11:25:23.780Z,6.80
2023-03-14T11:26:25.467Z,6.95
2023-03-14T11:27:44.243Z,8.43
2023-03-14T11:29:24.514Z,6.95
2023-03-14T11:30:51.981Z,7.78
2023-03-14T11:31:57.276Z,7.20
2023-03-14T11:33:22.063Z,7.95
2023-03-14T11:34:34.076Z,8.38
2023-03-14T11:35:59.112Z,7.95
2023-03-14T11:37:05.971Z,5.50
2023-03-14T11:38:35.223Z,7.15
2023-03-14T11:39:48.319Z,7.45
2023-03-14T11:40:52.551Z,7.90
2023-03-14T11:41:55.201Z,5.78
2023-03-14T11:43:30.535Z,6.57
2023-03-14T11:44:38.344Z,5.70
2023-03-14T11:45:43.340Z,7.68
2023-03-14T11:46:50.474Z,7.65
2023-03-14T11:48:17.705Z,6.20
2023-03-14T11:49:46.954Z,7.30
2023-03-14T11:50:54.230Z,7.40
2023-03-14T11:52:00.125Z,5.70
2023-03-14T11:53:15.255Z,6.22
2023-03-14T11:54:31.760Z,7.70
2023-03-14T11:55:38.494Z,9.13
2023-03-14T11:57:00.816Z,5.05
2023-03-14T11:58:20.071Z,6.68
2023-03-14T11:59:46.846Z,8.10
2023-03-14T12:00:51.715Z,8.90
2023-03-14T12:02:33.476Z,6.33
2023-03-14T12:03:44.415Z,5.63
2023-03-14T12:05:12.680Z,6.40
2023-03-14T12:06:29.242Z,13.27
2023-03-14T12:07:56.859Z,10.75
2023-03-14T12:09:06.657Z,6.82
2023-03-14T12:10:08.560Z,4.78
2023-03-14T12:11:16.452Z,5.65
2023-03-14T12:12:23.563Z,8.10
2023-03-14T12:13:37.687Z,7.93
2023-03-14T12:14:47.945Z,8.07
2023-03-14T12:15:57.506Z,5.68
2023-03-14T12:17:07.481Z,6.53
2023-03-14T12:18:39.671Z,8.15
2023-03-14T12:19:42.380Z,6.30
2023-03-14T12:20:54.508Z,6.72
2023-03-14T12:22:01.656Z,5.80
2023-03-14T12:23:06.608Z,5.53
2023-03-14T12:24:25.382Z,5.90
2023-03-14T12:25:30.810Z,7.95
2023-03-14T12:26:53.190Z,5.53
2023-03-14T12:27:57.937Z,4.93
2023-03-14T12:29:05.790Z,5.57
2023-03-14T12:30:18.819Z,6.47
2023-03-14T12:31:32.505Z,7.28
2023-03-14T12:32:34.496Z,5.75
2023-03-14T12:33:36.397Z,7.78
2023-03-14T12:34:43.911Z,5.03
2023-03-14T12:35:54.222Z,8.15
2023-03-14T12:37:07.476Z,6.88
2023-03-14T12:38:36.639Z,5.70
2023-03-14T12:40:07.260Z,7.35
2023-03-14T12:41:18.334Z,8.38
2023-03-14T12:42:44.565Z,5.78
2023-03-14T12:43:47.669Z,5.22
2023-03-14T12:44:51.627Z,6.32
2023-03-14T12:46:10.268Z,6.75
2023-03-14T12:47:18.071Z,7.00
2023-03-14T12:48:27.421Z,6.97
2023-03-14T12:49:33.834Z,6.68
2023-03-14T12:50:43.213Z,6.63
2023-03-14T12:51:45.265Z,6.40
2023-03-14T12:52:52.940Z,6.40
2023-03-14T12:54:19.327Z,6.85
2023-03-14T12:55:30.182Z,7.25
2023-03-14T12:56:57.956Z,5.97
2023-03-14T12:58:29.022Z,6.18
2023-03-14T12:59:49.023Z,6.95
2023-03-14T13:01:06.332Z,5.25
2023-03-14T13:02:07.985Z,7.53
2023-03-14T13:03:21.750Z,5.33
2023-03-14T13:04:40.202Z,6.63
2023-03-14T13:06:02.573Z,5.35
2023-03-14T13:07:05.342Z,5.18
2023-03-14T13:08:10.616Z,7.80
2023-03-14T13:09:36.785Z,6.70
2023-03-14T13:10:49.144Z,5.88
2023-03-14T13:11:51.148Z,5.50
2023-03-14T13:13:03.588Z,5.95
2023-03-14T13:14:11.410Z,5.53
2023-03-14T13:15:28.436Z,6.37
2023-03-14T13:16:30.569Z,7.68
2023-03-14T13:17:36.935Z,5.47
2023-03-14T13:19:12.983Z,6.15
2023-03-14T13:20:24.274Z,6.50
2023-03-14T13:21:29.423Z,4.15
2023-03-14T13:22:35.085Z,3.83
2023-03-14T13:23:39.092Z,5.50
2023-03-14T13:24:41.243Z,5.00
2023-03-14T13:25:43.356Z,6.70
2023-03-14T13:26:46.192Z,6.17
2023-03-14T13:27:48.531Z,7.75
2023-03-14T13:28:50.500Z,5.38
2023-03-14T13:29:52.945Z,5.32
2023-03-14T13:31:00.410Z,8.18
2023-03-14T13:32:20.728Z,7.47
2023-03-14T13:33:24.404Z,5.55
2023-03-14T13:34:32.027Z,6.13
2023-03-14T13:35:46.420Z,4.80
2023-03-14T13:36:48.411Z,5.55
2023-03-14T13:38:09.875Z,5.03
2023-03-14T13:39:20.755Z,5.18
2023-03-14T13:40:33.770Z,4.65
2023-03-14T13:41:35.548Z,6.00
2023-03-14T13:42:37.945Z,4.40
2023-03-14T13:43:45.309Z,5.80
2023-03-14T13:44:47.699Z,5.53
2023-03-14T13:46:02.350Z,9.02
2023-03-14T13:47:07.271Z,6.70
2023-03-14T13:48:13.658Z,5.30
2023-03-14T13:49:26.263Z,5.87
2023-03-14T13:50:28.867Z,5.38
2023-03-14T13:51:32.107Z,6.20
2023-03-14T13:52:38.781Z,5.38
2023-03-14T13:53:49.186Z,6.75
2023-03-14T13:54:55.234Z,6.18
2023-03-14T13:55:57.135Z,5.97
2023-03-14T13:57:07.581Z,8.75
2023-03-14T13:58:30.319Z,4.30
2023-03-14T13:59:34.206Z,6.93
2023-03-14T14:00:36.146Z,8.93
2023-03-14T14:01:39.739Z,10.30
2023-03-14T14:02:41.723Z,6.50
2023-03-14T14:03:47.326Z,7.55
2023-03-14T14:04:49.220Z,7.70
2023-03-14T14:05:51.115Z,5.53
2023-03-14T14:06:59.133Z,4.63